createdAt,value
2022-12-15T00:04:39.722Z,0.7
2022-12-15T00:10:26.855Z,0.7
2022-12-15T00:15:50.264Z,0.7
2022-12-15T00:20:57.702Z,0.6
2022-12-15T00:26:21.037Z,0.6
2022-12-15T00:32:02.066Z,0.6
2022-12-15T00:37:08.735Z,0.6
2022-12-15T00:42:32.143Z,0.6
2022-12-15T00:48:14.978Z,0.6
2022-12-15T00:53:36.270Z,0.6
2022-12-15T00:59:20.752Z,0.6
2022-12-15T01:04:46.022Z,0.6
2022-12-15T01:10:09.511Z,0.7
2022-12-15T01:15:34.813Z,0.8
2022-12-15T01:21:12.609Z,0.8
2022-12-15T01:26:35.039Z,0.8
2022-12-15T01:37:04.493Z,0.9
2022-12-15T01:42:28.812Z,0.9
2022-12-15T01:47:36.930Z,0.9
2022-12-15T01:53:15.028Z,0.9
2022-12-15T01:58:58.721Z,1
2022-12-15T02:04:28.080Z,1
2022-12-15T02:10:09.044Z,1
2022-12-15T02:15:35.283Z,1
2022-12-15T02:21:13.941Z,1.1
2022-12-15T02:26:51.997Z,1.1
2022-12-15T02:32:29.523Z,1.1
2022-12-15T02:38:07.762Z,1.1
2022-12-15T02:43:46.783Z,1.1
2022-12-15T02:49:27.849Z,1.1
2022-12-15T02:55:06.488Z,1.1
2022-12-15T03:00:28.388Z,1.1
2022-12-15T03:05:51.736Z,1.1
2022-12-15T03:11:34.110Z,1.1
2022-12-15T03:17:04.360Z,1.1
2022-12-15T03:22:42.104Z,1.1
2022-12-15T03:28:20.077Z,1.1
2022-12-15T03:33:45.228Z,1.1
2022-12-15T03:39:06.388Z,1.1
2022-12-15T03:44:45.898Z,1.1
2022-12-15T03:50:29.177Z,1.1
2022-12-15T03:55:52.022Z,1.1
2022-12-15T04:01:35.557Z,1.1
2022-12-15T04:07:15.678Z,1.1
2022-12-15T04:12:38.000Z,1.1
2022-12-15T04:18:05.183Z,1.1
2022-12-15T04:23:46.352Z,1.1
2022-12-15T04:29:30.166Z,1.1
2022-12-15T04:35:15.764Z,1.2
2022-12-15T04:40:55.009Z,1.2
2022-12-15T04:46:19.826Z,1.3
2022-12-15T04:51:58.175Z,1.3
2022-12-15T04:57:23.991Z,1.3
2022-12-15T05:02:47.011Z,1.3
2022-12-15T05:08:12.618Z,1.3
2022-12-15T05:13:43.831Z,1.4
2022-12-15T05:19:25.956Z,1.3
2022-12-15T05:24:33.950Z,1.4
2022-12-15T05:30:02.489Z,1.3
2022-12-15T05:35:49.405Z,1.4
2022-12-15T05:41:11.312Z,1.3
2022-12-15T05:46:52.356Z,1.4
2022-12-15T05:52:29.598Z,1.4
2022-12-15T05:58:10.571Z,1.4
2022-12-15T06:03:35.779Z,1.4
2022-12-15T06:09:24.070Z,1.3
2022-12-15T06:15:02.547Z,1.4
2022-12-15T06:20:51.479Z,1.4
2022-12-15T06:26:32.156Z,1.5
2022-12-15T06:32:17.097Z,1.6
2022-12-15T06:38:00.461Z,1.8
2022-12-15T06:43:14.083Z,1.9
2022-12-15T06:48:57.171Z,2
2022-12-15T06:54:43.101Z,2.2
2022-12-15T07:00:16.603Z,2.4
2022-12-15T07:06:01.336Z,2.8
2022-12-15T07:11:28.184Z,3.4
2022-12-15T07:17:12.841Z,4.1
2022-12-15T07:22:51.684Z,5
2022-12-15T07:28:56.847Z,6.4
2022-12-15T07:34:38.749Z,8.1
2022-12-15T07:40:20.931Z,9.4
2022-12-15T07:46:08.900Z,10.1
2022-12-15T07:51:53.333Z,10.7
2022-12-15T07:58:08.176Z,11.1
2022-12-15T08:03:33.560Z,11.4
2022-12-15T08:09:14.128Z,11.5
2022-12-15T08:15:30.942Z,11.5
2022-12-15T08:21:10.562Z,11.6
2022-12-15T08:26:49.846Z,11.8
2022-12-15T08:33:09.249Z,12.5
2022-12-15T08:39:04.893Z,13.3
2022-12-15T08:44:45.023Z,14.2
2022-12-15T08:49:56.452Z,15.7
2022-12-15T08:56:18.279Z,18
2022-12-15T09:01:58.557Z,19.7
2022-12-15T09:07:37.885Z,21.5
2022-12-15T09:13:20.480Z,24.9
2022-12-15T09:19:34.202Z,27.5
2022-12-15T09:25:24.467Z,27.5
2022-12-15T09:31:02.833Z,26.9
2022-12-15T09:36:45.871Z,26
2022-12-15T09:42:24.946Z,24.9
2022-12-15T09:48:38.845Z,24
2022-12-15T09:54:51.013Z,23.1
2022-12-15T10:00:19.722Z,22.3
2022-12-15T10:06:16.883Z,21.6
2022-12-15T10:12:00.543Z,21
2022-12-15T10:17:35.809Z,20.8
2022-12-15T10:23:07.668Z,20.5
2022-12-15T15:04:58.881Z,9.2
2022-12-15T15:10:38.640Z,8.6
2022-12-15T15:16:00.580Z,8.1
2022-12-15T15:21:41.358Z,7.6
2022-12-15T15:27:24.463Z,7.2
2022-12-15T15:32:53.714Z,6.8
2022-12-15T15:38:32.083Z,6.6
2022-12-15T15:44:17.320Z,6.3
2022-12-15T15:49:42.593Z,6.1
2022-12-15T15:55:05.220Z,5.8
2022-12-15T16:00:30.719Z,5.6
2022-12-15T16:06:17.116Z,5.3
2022-12-15T16:11:40.121Z,5.1
2022-12-15T16:17:25.288Z,4.8
2022-12-15T16:22:49.592Z,4.6
2022-12-15T16:28:21.598Z,4.4
2022-12-15T16:33:29.890Z,4.2
2022-12-15T16:39:09.130Z,4.1
2022-12-15T16:44:36.050Z,3.9
2022-12-15T16:49:44.492Z,3.8
2022-12-15T16:55:08.386Z,3.7
2022-12-15T17:01:00.789Z,3.6
2022-12-15T17:06:47.663Z,3.4
2022-12-15T17:12:10.454Z,3.3
2022-12-15T17:17:56.517Z,3.2
2022-12-15T17:23:39.355Z,3.1
2022-12-15T17:30:01.877Z,2.9
2022-12-15T17:35:42.745Z,2.7
2022-12-15T17:41:42.666Z,2.5
2022-12-15T17:48:03.861Z,2.3
2022-12-15T17:53:45.980Z,2.3
2022-12-15T17:59:14.738Z,2.2
2022-12-15T18:04:54.596Z,2.1
2022-12-15T18:10:16.351Z,2
2022-12-15T18:15:55.070Z,2
2022-12-15T18:21:36.513Z,1.9
2022-12-15T18:27:00.088Z,1.8
2022-12-15T18:32:24.328Z,1.8
2022-12-15T18:38:04.291Z,1.8
2022-12-15T18:43:48.425Z,1.7
2022-12-15T18:49:31.304Z,1.6
2022-12-15T18:55:10.461Z,1.6
2022-12-15T19:00:32.415Z,1.5
2022-12-15T19:06:13.079Z,1.4
2022-12-15T19:11:34.921Z,1.4
2022-12-15T19:17:15.780Z,1.3
2022-12-15T19:22:44.106Z,1.2
2022-12-15T19:28:22.126Z,1.1
2022-12-15T19:34:08.866Z,1.1
2022-12-15T19:39:46.502Z,1
2022-12-15T19:45:09.056Z,1
2022-12-15T19:50:47.459Z,0.9
2022-12-15T19:56:26.136Z,0.9
2022-12-15T20:02:09.833Z,0.9
2022-12-15T20:07:50.619Z,0.9
2022-12-15T20:13:34.578Z,0.9
2022-12-15T20:18:59.479Z,0.9
2022-12-15T20:24:21.425Z,0.9
2022-12-15T20:29:47.255Z,0.8
2022-12-15T20:35:31.054Z,0.8
2022-12-15T20:41:10.165Z,0.7
2022-12-15T20:46:32.487Z,0.8
2022-12-15T20:52:10.372Z,0.8
2022-12-15T20:57:33.310Z,0.8
2022-12-15T21:03:17.170Z,0.8
2022-12-15T21:08:56.945Z,0.7
2022-12-15T21:14:38.547Z,0.6
2022-12-15T21:21:35.008Z,0.5
2022-12-15T21:26:57.828Z,0.4
2022-12-15T21:32:43.601Z,0.4
2022-12-15T21:38:25.764Z,0.4
2022-12-15T21:44:09.560Z,0.4
2022-12-15T21:49:23.773Z,0.4
2022-12-15T21:55:05.512Z,0.4
2022-12-15T22:00:45.668Z,0.4
2022-12-15T22:06:25.663Z,0.4
2022-12-15T22:11:55.385Z,0.4
2022-12-15T22:22:49.173Z,0.3
2022-12-15T22:28:13.896Z,0.3
2022-12-15T22:33:39.821Z,0.3
2022-12-15T22:39:24.671Z,0.3
2022-12-15T22:45:03.484Z,0.3
2022-12-15T22:50:31.180Z,0.2
2022-12-15T22:56:14.367Z,0.2
2022-12-15T23:01:53.380Z,0.1
2022-12-15T23:07:17.662Z,0.1
2022-12-15T23:12:40.373Z,0.1
2022-12-15T23:18:20.250Z,0.1
2022-12-15T23:24:00.011Z,0.1
2022-12-15T23:29:24.726Z,0.1
2022-12-15T23:34:47.977Z,0.1
2022-12-15T23:40:26.409Z,0
2022-12-15T23:46:07.261Z,0
2022-12-15T23:51:47.551Z,0
2022-12-15T23:57:28.739Z,0.1
